sensor_id;sensor_type;location;lat;lon;timestamp;pressure;altitude;pressure_sealevel;temperature;humidity
71966;BME280;59836;52.132;5.442;2023-12-22T00:01:06;100222.19;;;7.14;100.00
71966;BME280;59836;52.132;5.442;2023-12-22T00:03:33;100217.88;;;7.13;100.00
71966;BME280;59836;52.132;5.442;2023-12-22T00:05:59;100227.56;;;7.08;100.00
71966;BME280;59836;52.132;5.442;2023-12-22T00:08:40;100245.88;;;7.06;100.00
71966;BME280;59836;52.132;5.442;2023-12-22T00:11:07;100243.38;;;6.94;100.00
71966;BME280;59836;52.132;5.442;2023-12-22T00:13:34;100251.97;;;6.86;100.00
71966;BME280;59836;52.132;5.442;2023-12-22T00:16:01;100260.31;;;6.85;100.00
71966;BME280;59836;52.132;5.442;2023-12-22T00:18:27;100264.09;;;6.84;100.00
71966;BME280;59836;52.132;5.442;2023-12-22T00:20:55;100252.19;;;6.79;100.00
71966;BME280;59836;52.132;5.442;2023-12-22T00:23:22;100270.75;;;6.76;100.00
71966;BME280;59836;52.132;5.442;2023-12-22T00:25:48;100268.34;;;6.74;100.00
71966;BME280;59836;52.132;5.442;2023-12-22T00:28:15;100256.44;;;6.70;100.00
71966;BME280;59836;52.132;5.442;2023-12-22T00:30:41;100264.78;;;6.69;100.00
71966;BME280;59836;52.132;5.442;2023-12-22T00:33:08;100272.06;;;6.68;100.00
71966;BME280;59836;52.132;5.442;2023-12-22T00:35:35;100283.34;;;6.65;100.00
71966;BME280;59836;52.132;5.442;2023-12-22T00:38:02;100285.50;;;6.63;100.00
71966;BME280;59836;52.132;5.442;2023-12-22T00:40:32;100276.03;;;6.60;100.00
71966;BME280;59836;52.132;5.442;2023-12-22T00:42:58;100257.44;;;6.59;100.00
71966;BME280;59836;52.132;5.442;2023-12-22T00:45:25;100261.72;;;6.55;100.00
71966;BME280;59836;52.132;5.442;2023-12-22T00:47:51;100256.31;;;6.55;100.00
71966;BME280;59836;52.132;5.442;2023-12-22T00:50:18;100270.34;;;6.57;100.00
71966;BME280;59836;52.132;5.442;2023-12-22T00:52:45;100271.69;;;6.59;100.00
71966;BME280;59836;52.132;5.442;2023-12-22T00:55:11;100280.63;;;6.60;100.00
71966;BME280;59836;52.132;5.442;2023-12-22T00:57:38;100269.84;;;6.60;100.00
71966;BME280;59836;52.132;5.442;2023-12-22T01:00:05;100280.63;;;6.60;100.00
71966;BME280;59836;52.132;5.442;2023-12-22T01:02:35;100292.47;;;6.59;100.00
71966;BME280;59836;52.132;5.442;2023-12-22T01:05:01;100281.69;;;6.59;100.00
71966;BME280;59836;52.132;5.442;2023-12-22T01:07:28;100289.44;;;6.55;100.00
71966;BME280;59836;52.132;5.442;2023-12-22T01:09:55;100299.47;;;6.60;100.00
71966;BME280;59836;52.132;5.442;2023-12-22T01:12:30;100302.16;;;6.60;100.00
71966;BME280;59836;52.132;5.442;2023-12-22T01:14:57;100304.34;;;6.63;100.00
71966;BME280;59836;52.132;5.442;2023-12-22T01:17:24;100306.78;;;6.64;100.00
71966;BME280;59836;52.132;5.442;2023-12-22T01:19:50;100316.47;;;6.65;100.00
71966;BME280;59836;52.132;5.442;2023-12-22T01:22:17;100312.47;;;6.68;100.00
71966;BME280;59836;52.132;5.442;2023-12-22T01:24:44;100307.09;;;6.68;100.00
71966;BME280;59836;52.132;5.442;2023-12-22T01:27:12;100294.41;;;6.69;100.00
71966;BME280;59836;52.132;5.442;2023-12-22T01:29:46;100301.69;;;6.68;100.00
71966;BME280;59836;52.132;5.442;2023-12-22T01:32:12;100293.63;;;6.68;100.00
71966;BME280;59836;52.132;5.442;2023-12-22T01:34:40;100289.28;;;6.67;100.00
71966;BME280;59836;52.132;5.442;2023-12-22T01:37:07;100299.00;;;6.68;100.00
71966;BME280;59836;52.132;5.442;2023-12-22T01:39:33;100289.28;;;6.67;100.00
71966;BME280;59836;52.132;5.442;2023-12-22T01:42:02;100293.06;;;6.66;100.00
71966;BME280;59836;52.132;5.442;2023-12-22T01:44:29;100288.47;;;6.67;100.00
71966;BME280;59836;52.132;5.442;2023-12-22T01:46:56;100295.75;;;6.66;100.00
71966;BME280;59836;52.132;5.442;2023-12-22T01:49:24;100287.66;;;6.66;100.00
71966;BME280;59836;52.132;5.442;2023-12-22T01:51:52;100290.59;;;6.64;100.00
71966;BME280;59836;52.132;5.442;2023-12-22T01:54:19;100280.09;;;6.63;100.00
71966;BME280;59836;52.132;5.442;2023-12-22T01:56:46;100288.19;;;6.63;100.00
71966;BME280;59836;52.132;5.442;2023-12-22T01:59:12;100297.84;;;6.59;100.00
71966;BME280;59836;52.132;5.442;2023-12-22T02:01:39;100322.09;;;6.59;100.00
71966;BME280;59836;52.132;5.442;2023-12-22T02:04:07;100305.66;;;6.60;100.00
71966;BME280;59836;52.132;5.442;2023-12-22T02:06:34;100305.41;;;6.62;100.00
71966;BME280;59836;52.132;5.442;2023-12-22T02:09:02;100302.16;;;6.60;100.00
71966;BME280;59836;52.132;5.442;2023-12-22T02:11:30;100304.59;;;6.61;100.00
71966;BME280;59836;52.132;5.442;2023-12-22T02:13:57;100296.78;;;6.60;100.00
71966;BME280;59836;52.132;5.442;2023-12-22T02:16:33;100284.94;;;6.61;100.00
71966;BME280;59836;52.132;5.442;2023-12-22T02:19:12;100296.25;;;6.63;100.00
71966;BME280;59836;52.132;5.442;2023-12-22T02:22:04;100282.22;;;6.61;100.00
71966;BME280;59836;52.132;5.442;2023-12-22T02:24:35;100276.84;;;6.61;100.00
71966;BME280;59836;52.132;5.442;2023-12-22T02:30:12;100261.78;;;6.65;100.00
71966;BME280;59836;52.132;5.442;2023-12-22T02:32:43;100280.66;;;6.65;100.00
71966;BME280;59836;52.132;5.442;2023-12-22T02:35:11;100265.56;;;6.64;100.00
71966;BME280;59836;52.132;5.442;2023-12-22T02:37:40;100264.19;;;6.61;100.00
71966;BME280;59836;52.132;5.442;2023-12-22T02:40:09;100263.09;;;6.62;100.00
71966;BME280;59836;52.132;5.442;2023-12-22T02:42:38;100249.38;;;6.64;100.00
71966;BME280;59836;52.132;5.442;2023-12-22T02:45:06;100246.19;;;6.67;100.00
71966;BME280;59836;52.132;5.442;2023-12-22T02:47:32;100240.47;;;6.63;100.00
71966;BME280;59836;52.132;5.442;2023-12-22T02:49:59;100235.38;;;6.62;100.00
71966;BME280;59836;52.132;5.442;2023-12-22T02:52:26;100240.47;;;6.63;100.00
71966;BME280;59836;52.132;5.442;2023-12-22T02:54:52;100238.84;;;6.62;100.00
71966;BME280;59836;52.132;5.442;2023-12-22T02:57:19;100234.84;;;6.65;100.00
71966;BME280;59836;52.132;5.442;2023-12-22T02:59:45;100240.78;;;6.67;100.00
71966;BME280;59836;52.132;5.442;2023-12-22T03:02:12;100235.97;;;6.69;100.00
71966;BME280;59836;52.132;5.442;2023-12-22T03:04:38;100251.59;;;6.72;100.00
71966;BME280;59836;52.132;5.442;2023-12-22T03:07:05;100260.25;;;6.74;100.00
71966;BME280;59836;52.132;5.442;2023-12-22T03:09:32;100254.59;;;6.76;100.00
71966;BME280;59836;52.132;5.442;2023-12-22T03:12:05;100268.38;;;6.79;100.00
71966;BME280;59836;52.132;5.442;2023-12-22T03:14:32;100269.47;;;6.84;100.00
71966;BME280;59836;52.132;5.442;2023-12-22T03:17:00;100280.81;;;6.86;100.00
71966;BME280;59836;52.132;5.442;2023-12-22T03:19:27;100283.50;;;6.86;100.00
71966;BME280;59836;52.132;5.442;2023-12-22T03:21:53;100279.75;;;6.87;100.00
71966;BME280;59836;52.132;5.442;2023-12-22T03:24:20;100278.69;;;6.88;100.00
71966;BME280;59836;52.132;5.442;2023-12-22T03:26:50;100295.94;;;6.92;100.00
71966;BME280;59836;52.132;5.442;2023-12-22T03:29:17;100285.19;;;6.97;100.00
71966;BME280;59836;52.132;5.442;2023-12-22T03:31:45;100280.63;;;6.98;100.00
71966;BME280;59836;52.132;5.442;2023-12-22T03:34:12;100276.56;;;7.00;100.00
71966;BME280;59836;52.132;5.442;2023-12-22T03:36:39;100314.06;;;7.02;100.00
71966;BME280;59836;52.132;5.442;2023-12-22T03:39:05;100302.22;;;7.03;100.00
71966;BME280;59836;52.132;5.442;2023-12-22T03:41:32;100335.88;;;7.00;100.00
71966;BME280;59836;52.132;5.442;2023-12-22T03:43:58;100335.84;;;6.95;100.00
71966;BME280;59836;52.132;5.442;2023-12-22T03:46:25;100373.03;;;6.88;100.00
71966;BME280;59836;52.132;5.442;2023-12-22T03:48:51;100347.00;;;6.71;100.00
71966;BME280;59836;52.132;5.442;2023-12-22T03:51:18;100334.50;;;6.60;100.00
71966;BME280;59836;52.132;5.442;2023-12-22T03:53:45;100321.53;;;6.57;100.00
71966;BME280;59836;52.132;5.442;2023-12-22T03:56:11;100329.31;;;6.53;100.00
71966;BME280;59836;52.132;5.442;2023-12-22T03:58:38;100333.28;;;6.45;100.00
71966;BME280;59836;52.132;5.442;2023-12-22T04:01:04;100335.41;;;6.43;100.00
71966;BME280;59836;52.132;5.442;2023-12-22T04:03:34;100332.16;;;6.41;100.00
71966;BME280;59836;52.132;5.442;2023-12-22T04:06:04;100332.16;;;6.41;100.00
71966;BME280;59836;52.132;5.442;2023-12-22T04:08:30;100333.78;;;6.42;100.00
71966;BME280;59836;52.132;5.442;2023-12-22T04:10:57;100336.22;;;6.44;100.00
71966;BME280;59836;52.132;5.442;2023-12-22T04:13:24;100332.44;;;6.45;100.00
71966;BME280;59836;52.132;5.442;2023-12-22T04:15:50;100333.78;;;6.42;100.00
71966;BME280;59836;52.132;5.442;2023-12-22T04:18:17;100331.66;;;6.44;100.00
71966;BME280;59836;52.132;5.442;2023-12-22T04:20:44;100341.38;;;6.45;100.00
71966;BME280;59836;52.132;5.442;2023-12-22T04:23:10;100329.53;;;6.46;100.00
71966;BME280;59836;52.132;5.442;2023-12-22T04:25:37;100335.72;;;6.47;100.00
71966;BME280;59836;52.132;5.442;2023-12-22T04:28:03;100340.03;;;6.48;100.00
71966;BME280;59836;52.132;5.442;2023-12-22T04:30:30;100343.03;;;6.52;100.00
71966;BME280;59836;52.132;5.442;2023-12-22T04:32:59;100337.66;;;6.52;100.00
71966;BME280;59836;52.132;5.442;2023-12-22T04:35:34;100336.81;;;6.51;100.00
71966;BME280;59836;52.132;5.442;2023-12-22T04:38:04;100324.75;;;6.54;100.00
71966;BME280;59836;52.132;5.442;2023-12-22T04:40:31;100324.75;;;6.54;100.00
71966;BME280;59836;52.132;5.442;2023-12-22T04:42:57;100329.63;;;6.57;100.00
71966;BME280;59836;52.132;5.442;2023-12-22T04:45:24;100343.38;;;6.60;100.00
71966;BME280;59836;52.132;5.442;2023-12-22T04:47:50;100348.53;;;6.62;100.00
71966;BME280;59836;52.132;5.442;2023-12-22T04:50:17;100352.03;;;6.62;100.00
71966;BME280;59836;52.132;5.442;2023-12-22T04:52:44;100344.75;;;6.63;100.00
71966;BME280;59836;52.132;5.442;2023-12-22T04:55:10;100341.00;;;6.64;100.00
71966;BME280;59836;52.132;5.442;2023-12-22T04:57:38;100346.13;;;6.65;100.00
71966;BME280;59836;52.132;5.442;2023-12-22T05:00:06;100333.47;;;6.66;100.00
71966;BME280;59836;52.132;5.442;2023-12-22T05:02:32;100338.88;;;6.66;100.00
71966;BME280;59836;52.132;5.442;2023-12-22T05:05:04;100334.53;;;6.65;100.00
71966;BME280;59836;52.132;5.442;2023-12-22T05:07:30;100346.41;;;6.64;100.00
71966;BME280;59836;52.132;5.442;2023-12-22T05:09:57;100340.72;;;6.65;100.00
71966;BME280;59836;52.132;5.442;2023-12-22T05:12:24;100331.03;;;6.64;100.00
71966;BME280;59836;52.132;5.442;2023-12-22T05:14:53;100330.78;;;6.66;100.00
71966;BME280;59836;52.132;5.442;2023-12-22T05:17:20;100333.47;;;6.66;100.00
71966;BME280;59836;52.132;5.442;2023-12-22T05:19:47;100322.69;;;6.66;100.00
71966;BME280;59836;52.132;5.442;2023-12-22T05:22:14;100324.31;;;6.67;100.00
71966;BME280;59836;52.132;5.442;2023-12-22T05:24:40;100313.53;;;6.67;100.00
71966;BME280;59836;52.132;5.442;2023-12-22T05:27:07;100312.47;;;6.68;100.00
71966;BME280;59836;52.132;5.442;2023-12-22T05:29:33;100312.22;;;6.70;100.00
71966;BME280;59836;52.132;5.442;2023-12-22T05:32:00;100328.69;;;6.73;100.00
71966;BME280;59836;52.132;5.442;2023-12-22T05:34:26;100323.84;;;6.75;100.00
71966;BME280;59836;52.132;5.442;2023-12-22T05:36:53;100319.03;;;6.77;100.00
71966;BME280;59836;52.132;5.442;2023-12-22T05:39:20;100310.44;;;6.81;100.00
71966;BME280;59836;52.132;5.442;2023-12-22T05:41:46;100305.31;;;6.84;100.00
71966;BME280;59836;52.132;5.442;2023-12-22T05:44:14;100312.09;;;6.87;100.00
71966;BME280;59836;52.132;5.442;2023-12-22T05:46:40;100304.28;;;6.90;100.00
71966;BME280;59836;52.132;5.442;2023-12-22T05:49:07;100306.47;;;6.93;100.00
71966;BME280;59836;52.132;5.442;2023-12-22T05:51:38;100308.66;;;6.97;100.00
71966;BME280;59836;52.132;5.442;2023-12-22T05:54:07;100304.59;;;6.99;100.00
71966;BME280;59836;52.132;5.442;2023-12-22T05:56:34;100309.47;;;7.02;100.00
71966;BME280;59836;52.132;5.442;2023-12-22T05:59:00;100319.75;;;7.05;100.00
71966;BME280;59836;52.132;5.442;2023-12-22T06:01:27;100329.47;;;7.06;100.00
71966;BME280;59836;52.132;5.442;2023-12-22T06:03:54;100321.94;;;7.08;100.00
71966;BME280;59836;52.132;5.442;2023-12-22T06:06:21;100309.00;;;7.11;100.00
71966;BME280;59836;52.132;5.442;2023-12-22T06:08:48;100311.69;;;7.11;100.00
71966;BME280;59836;52.132;5.442;2023-12-22T06:11:14;100306.84;;;7.13;100.00
71966;BME280;59836;52.132;5.442;2023-12-22T06:13:41;100301.22;;;7.14;100.00
71966;BME280;59836;52.132;5.442;2023-12-22T06:16:14;100305.28;;;7.17;100.00
71966;BME280;59836;52.132;5.442;2023-12-22T06:18:41;100313.34;;;7.17;100.00
71966;BME280;59836;52.132;5.442;2023-12-22T06:21:09;100296.09;;;7.18;100.00
71966;BME280;59836;52.132;5.442;2023-12-22T06:23:35;100303.69;;;7.21;100.00
71966;BME280;59836;52.132;5.442;2023-12-22T06:26:09;100314.22;;;7.22;100.00
71966;BME280;59836;52.132;5.442;2023-12-22T06:28:36;100313.94;;;7.24;100.00
71966;BME280;59836;52.132;5.442;2023-12-22T06:31:05;100304.53;;;7.27;100.00
71966;BME280;59836;52.132;5.442;2023-12-22T06:33:32;100294.53;;;7.27;100.00
71966;BME280;59836;52.132;5.442;2023-12-22T06:35:58;100307.78;;;7.29;100.00
71966;BME280;59836;52.132;5.442;2023-12-22T06:38:25;100306.44;;;7.31;100.00
71966;BME280;59836;52.132;5.442;2023-12-22T06:40:51;100301.03;;;7.31;100.00
71966;BME280;59836;52.132;5.442;2023-12-22T06:43:18;100307.25;;;7.32;100.00
71966;BME280;59836;52.132;5.442;2023-12-22T06:45:44;100305.38;;;7.32;100.00
71966;BME280;59836;52.132;5.442;2023-12-22T06:48:11;100308.63;;;7.34;100.00
71966;BME280;59836;52.132;5.442;2023-12-22T06:50:37;100311.88;;;7.36;100.00
71966;BME280;59836;52.132;5.442;2023-12-22T06:53:06;100310.78;;;7.37;100.00
71966;BME280;59836;52.132;5.442;2023-12-22T06:55:47;100298.94;;;7.38;100.00
71966;BME280;59836;52.132;5.442;2023-12-22T06:58:13;100306.78;;;7.40;100.00
71966;BME280;59836;52.132;5.442;2023-12-22T07:00:40;100309.19;;;7.42;100.00
71966;BME280;59836;52.132;5.442;2023-12-22T07:03:07;100308.13;;;7.43;100.00
71966;BME280;59836;52.132;5.442;2023-12-22T07:05:34;100298.94;;;7.44;100.00
71966;BME280;59836;52.132;5.442;2023-12-22T07:08:03;100290.59;;;7.45;100.00
71966;BME280;59836;52.132;5.442;2023-12-22T07:10:30;100295.19;;;7.45;100.00
71966;BME280;59836;52.132;5.442;2023-12-22T07:12:57;100288.44;;;7.47;100.00
71966;BME280;59836;52.132;5.442;2023-12-22T07:15:23;100279.25;;;7.48;100.00
71966;BME280;59836;52.132;5.442;2023-12-22T07:17:49;100298.69;;;7.50;100.00
71966;BME280;59836;52.132;5.442;2023-12-22T07:20:17;100289.53;;;7.51;100.00
71966;BME280;59836;52.132;5.442;2023-12-22T07:22:46;100298.19;;;7.53;100.00
71966;BME280;59836;52.132;5.442;2023-12-22T07:25:13;100311.44;;;7.55;100.00
71966;BME280;59836;52.132;5.442;2023-12-22T07:27:40;100313.06;;;7.56;100.00
71966;BME280;59836;52.132;5.442;2023-12-22T07:30:07;100319.53;;;7.60;100.00
71966;BME280;59836;52.132;5.442;2023-12-22T07:32:34;100319.53;;;7.60;100.00
71966;BME280;59836;52.132;5.442;2023-12-22T07:35:01;100321.16;;;7.61;100.00
71966;BME280;59836;52.132;5.442;2023-12-22T07:37:27;100312.00;;;7.62;100.00
71966;BME280;59836;52.132;5.442;2023-12-22T07:39:54;100319.03;;;7.63;100.00
71966;BME280;59836;52.132;5.442;2023-12-22T07:42:21;100305.53;;;7.63;100.00
71966;BME280;59836;52.132;5.442;2023-12-22T07:44:48;100301.47;;;7.66;100.00
71966;BME280;59836;52.132;5.442;2023-12-22T07:47:14;100310.13;;;7.68;100.00
71966;BME280;59836;52.132;5.442;2023-12-22T07:49:41;100309.31;;;7.67;100.00
71966;BME280;59836;52.132;5.442;2023-12-22T07:52:08;100320.13;;;7.67;100.00
71966;BME280;59836;52.132;5.442;2023-12-22T07:54:35;100308.22;;;7.63;100.00
71966;BME280;59836;52.132;5.442;2023-12-22T07:57:02;100312.53;;;7.59;100.00
71966;BME280;59836;52.132;5.442;2023-12-22T07:59:29;100307.91;;;7.54;100.00
71966;BME280;59836;52.132;5.442;2023-12-22T08:01:59;100310.31;;;7.51;100.00
71966;BME280;59836;52.132;5.442;2023-12-22T08:04:27;100304.94;;;7.51;100.00
71966;BME280;59836;52.132;5.442;2023-12-22T08:06:53;100326.22;;;7.47;100.00
71966;BME280;59836;52.132;5.442;2023-12-22T08:09:20;100330.81;;;7.47;100.00
71966;BME280;59836;52.132;5.442;2023-12-22T08:11:47;100328.09;;;7.47;100.00
71966;BME280;59836;52.132;5.442;2023-12-22T08:14:14;100323.50;;;7.47;100.00
71966;BME280;59836;52.132;5.442;2023-12-22T08:16:40;100318.66;;;7.49;100.00
71966;BME280;59836;52.132;5.442;2023-12-22T08:19:07;100311.41;;;7.50;100.00
71966;BME280;59836;52.132;5.442;2023-12-22T08:21:34;100314.09;;;7.50;100.00
71966;BME280;59836;52.132;5.442;2023-12-22T08:24:11;100311.13;;;7.51;100.00
71966;BME280;59836;52.132;5.442;2023-12-22T08:26:48;100302.78;;;7.53;100.00
71966;BME280;59836;52.132;5.442;2023-12-22T08:29:15;100299.00;;;7.54;100.00
71966;BME280;59836;52.132;5.442;2023-12-22T08:31:46;100281.75;;;7.55;100.00
71966;BME280;59836;52.132;5.442;2023-12-22T08:34:12;100285.00;;;7.57;100.00
71966;BME280;59836;52.132;5.442;2023-12-22T08:36:39;100282.28;;;7.57;100.00
71966;BME280;59836;52.132;5.442;2023-12-22T08:39:06;100282.28;;;7.57;100.00
71966;BME280;59836;52.132;5.442;2023-12-22T08:41:34;100283.09;;;7.58;100.00
71966;BME280;59836;52.132;5.442;2023-12-22T08:44:04;100275.81;;;7.58;100.00
71966;BME280;59836;52.132;5.442;2023-12-22T08:46:31;100258.56;;;7.59;100.00
71966;BME280;59836;52.132;5.442;2023-12-22T08:48:58;100278.78;;;7.62;100.00
71966;BME280;59836;52.132;5.442;2023-12-22T08:51:26;100268.81;;;7.62;100.00
71966;BME280;59836;52.132;5.442;2023-12-22T08:53:54;100267.75;;;7.63;100.00
71966;BME280;59836;52.132;5.442;2023-12-22T08:56:24;100266.66;;;7.64;100.00
71966;BME280;59836;52.132;5.442;2023-12-22T08:58:54;100259.91;;;7.67;100.00
71966;BME280;59836;52.132;5.442;2023-12-22T09:01:22;100256.97;;;7.68;100.00
71966;BME280;59836;52.132;5.442;2023-12-22T09:03:49;100261.28;;;7.70;100.00
71966;BME280;59836;52.132;5.442;2023-12-22T09:06:20;100262.63;;;7.72;100.00
71966;BME280;59836;52.132;5.442;2023-12-22T09:08:48;100269.41;;;7.75;100.00
71966;BME280;59836;52.132;5.442;2023-12-22T09:11:19;100272.66;;;7.77;100.00
71966;BME280;59836;52.132;5.442;2023-12-22T09:13:46;100274.81;;;7.80;100.00
71966;BME280;59836;52.132;5.442;2023-12-22T09:16:20;100277.00;;;7.83;100.00
71966;BME280;59836;52.132;5.442;2023-12-22T09:18:47;100285.63;;;7.85;100.00
71966;BME280;59836;52.132;5.442;2023-12-22T09:21:14;100289.97;;;7.86;100.00
71966;BME280;59836;52.132;5.442;2023-12-22T09:23:40;100292.13;;;7.89;100.00
71966;BME280;59836;52.132;5.442;2023-12-22T09:26:10;100287.53;;;7.90;100.00
71966;BME280;59836;52.132;5.442;2023-12-22T09:28:37;100275.38;;;7.87;100.00
71966;BME280;59836;52.132;5.442;2023-12-22T09:31:15;100278.06;;;7.82;100.00
71966;BME280;59836;52.132;5.442;2023-12-22T09:33:49;100280.75;;;7.77;100.00
71966;BME280;59836;52.132;5.442;2023-12-22T09:36:15;100301.25;;;7.73;100.00
71966;BME280;59836;52.132;5.442;2023-12-22T09:38:42;100285.03;;;7.67;100.00
71966;BME280;59836;52.132;5.442;2023-12-22T09:41:10;100279.09;;;7.65;100.00
71966;BME280;59836;52.132;5.442;2023-12-22T09:43:39;100277.16;;;7.61;100.00
71966;BME280;59836;52.132;5.442;2023-12-22T09:46:07;100279.31;;;7.59;100.00
71966;BME280;59836;52.132;5.442;2023-12-22T09:48:36;100276.91;;;7.57;100.00
71966;BME280;59836;52.132;5.442;2023-12-22T09:51:05;100283.09;;;7.58;100.00
71966;BME280;59836;52.132;5.442;2023-12-22T09:53:33;100271.75;;;7.56;100.00
71966;BME280;59836;52.132;5.442;2023-12-22T09:56:00;100276.06;;;7.57;100.00
71966;BME280;59836;52.132;5.442;2023-12-22T09:58:27;100276.91;;;7.57;100.00
71966;BME280;59836;52.132;5.442;2023-12-22T10:00:54;100272.59;;;7.61;100.00
71966;BME280;59836;52.132;5.442;2023-12-22T10:03:22;100268.81;;;7.62;100.00
71966;BME280;59836;52.132;5.442;2023-12-22T10:05:50;100266.13;;;7.67;100.00
71966;BME280;59836;52.132;5.442;2023-12-22T10:08:18;100271.81;;;7.71;100.00
71966;BME280;59836;52.132;5.442;2023-12-22T10:10:46;100269.94;;;7.77;100.00
71966;BME280;59836;52.132;5.442;2023-12-22T10:13:14;100271.03;;;7.81;100.00
71966;BME280;59836;52.132;5.442;2023-12-22T10:15:43;100277.53;;;7.85;100.00
71966;BME280;59836;52.132;5.442;2023-12-22T10:18:11;100282.13;;;7.90;100.00
71966;BME280;59836;52.132;5.442;2023-12-22T10:20:38;100284.06;;;7.94;100.00
71966;BME280;59836;52.132;5.442;2023-12-22T10:23:05;100280.00;;;7.97;100.00
71966;BME280;59836;52.132;5.442;2023-12-22T10:25:32;100267.03;;;7.99;100.00
71966;BME280;59836;52.132;5.442;2023-12-22T10:27:59;100272.69;;;8.03;100.00
71966;BME280;59836;52.132;5.442;2023-12-22T10:30:27;100286.75;;;8.05;100.00
71966;BME280;59836;52.132;5.442;2023-12-22T10:32:54;100273.78;;;8.07;100.00
71966;BME280;59836;52.132;5.442;2023-12-22T10:35:21;100298.94;;;8.07;100.00
71966;BME280;59836;52.132;5.442;2023-12-22T10:37:48;100278.66;;;8.10;100.00
71966;BME280;59836;52.132;5.442;2023-12-22T10:40:19;100289.47;;;8.10;100.00
71966;BME280;59836;52.132;5.442;2023-12-22T10:42:46;100292.72;;;8.12;100.00
71966;BME280;59836;52.132;5.442;2023-12-22T10:45:12;100297.03;;;8.13;100.00
71966;BME280;59836;52.132;5.442;2023-12-22T10:47:40;100290.56;;;8.14;100.00
71966;BME280;59836;52.132;5.442;2023-12-22T10:50:07;100289.22;;;8.17;100.00
71966;BME280;59836;52.132;5.442;2023-12-22T10:52:33;100295.97;;;8.19;100.00
71966;BME280;59836;52.132;5.442;2023-12-22T10:55:00;100293.81;;;8.21;100.00
71966;BME280;59836;52.132;5.442;2023-12-22T10:57:27;100283.56;;;8.23;100.00
71966;BME280;59836;52.132;5.442;2023-12-22T10:59:56;100286.78;;;8.25;100.00
71966;BME280;59836;52.132;5.442;2023-12-22T11:02:28;100275.19;;;8.25;100.00
71966;BME280;59836;52.132;5.442;2023-12-22T11:05:01;100277.06;;;8.30;100.00
71966;BME280;59836;52.132;5.442;2023-12-22T11:07:29;100260.88;;;8.30;100.00
71966;BME280;59836;52.132;5.442;2023-12-22T11:10:03;100270.59;;;8.31;100.00
71966;BME280;59836;52.132;5.442;2023-12-22T11:12:35;100260.34;;;8.33;100.00
71966;BME280;59836;52.132;5.442;2023-12-22T11:15:02;100267.34;;;8.34;100.00
71966;BME280;59836;52.132;5.442;2023-12-22T11:17:36;100262.50;;;8.36;100.00
71966;BME280;59836;52.132;5.442;2023-12-22T11:20:10;100264.94;;;8.37;100.00
71966;BME280;59836;52.132;5.442;2023-12-22T11:22:40;100268.97;;;8.40;100.00
71966;BME280;59836;52.132;5.442;2023-12-22T11:25:08;100253.31;;;8.42;100.00
71966;BME280;59836;52.132;5.442;2023-12-22T11:27:37;100254.94;;;8.43;100.00
71966;BME280;59836;52.132;5.442;2023-12-22T11:30:05;100251.16;;;8.44;100.00
71966;BME280;59836;52.132;5.442;2023-12-22T11:32:34;100250.34;;;8.44;100.00
71966;BME280;59836;52.132;5.442;2023-12-22T11:35:02;100263.59;;;8.45;100.00
71966;BME280;59836;52.132;5.442;2023-12-22T11:37:30;100254.41;;;8.46;100.00
71966;BME280;59836;52.132;5.442;2023-12-22T11:39:57;100252.25;;;8.48;100.00
71966;BME280;59836;52.132;5.442;2023-12-22T11:42:34;100246.03;;;8.48;100.00
71966;BME280;59836;52.132;5.442;2023-12-22T11:45:04;100247.41;;;8.50;100.00
71966;BME280;59836;52.132;5.442;2023-12-22T11:47:31;100247.13;;;8.52;100.00
71966;BME280;59836;52.132;5.442;2023-12-22T11:49:58;100236.31;;;8.52;100.00
71966;BME280;59836;52.132;5.442;2023-12-22T11:52:26;100234.97;;;8.54;100.00
71966;BME280;59836;52.132;5.442;2023-12-22T11:54:55;100234.97;;;8.54;100.00
71966;BME280;59836;52.132;5.442;2023-12-22T12:00:00;100239.56;;;8.59;100.00
71966;BME280;59836;52.132;5.442;2023-12-22T12:02:29;100233.06;;;8.60;100.00
71966;BME280;59836;52.132;5.442;2023-12-22T12:04:58;100220.38;;;8.61;100.00
71966;BME280;59836;52.132;5.442;2023-12-22T12:07:47;100218.22;;;8.63;100.00
71966;BME280;59836;52.132;5.442;2023-12-22T12:13:14;100204.16;;;8.66;100.00
71966;BME280;59836;52.132;5.442;2023-12-22T12:15:42;100205.78;;;8.67;100.00
71966;BME280;59836;52.132;5.442;2023-12-22T12:18:08;100185.75;;;8.68;100.00
71966;BME280;59836;52.132;5.442;2023-12-22T12:20:35;100196.28;;;8.69;100.00
71966;BME280;59836;52.132;5.442;2023-12-22T12:23:02;100196.03;;;8.71;100.00
71966;BME280;59836;52.132;5.442;2023-12-22T12:25:30;100199.28;;;8.73;100.00
71966;BME280;59836;52.132;5.442;2023-12-22T12:28:03;100201.69;;;8.75;100.00
71966;BME280;59836;52.132;5.442;2023-12-22T12:30:31;100203.31;;;8.76;100.00
71966;BME280;59836;52.132;5.442;2023-12-22T12:33:17;100193.31;;;8.76;100.00
71966;BME280;59836;52.132;5.442;2023-12-22T12:35:45;100191.16;;;8.78;100.00
71966;BME280;59836;52.132;5.442;2023-12-22T12:38:17;100191.16;;;8.78;100.00
71966;BME280;59836;52.132;5.442;2023-12-22T12:40:50;100178.19;;;8.80;100.00
71966;BME280;59836;52.132;5.442;2023-12-22T12:43:17;100190.88;;;8.80;100.00
71966;BME280;59836;52.132;5.442;2023-12-22T12:45:44;100185.19;;;8.81;100.00
71966;BME280;59836;52.132;5.442;2023-12-22T12:48:16;100193.31;;;8.81;100.00
71966;BME280;59836;52.132;5.442;2023-12-22T12:50:44;100199.25;;;8.83;100.00
71966;BME280;59836;52.132;5.442;2023-12-22T12:53:10;100198.72;;;8.86;100.00
71966;BME280;59836;52.132;5.442;2023-12-22T12:55:37;100200.34;;;8.88;100.00
71966;BME280;59836;52.132;5.442;2023-12-22T12:58:03;100211.69;;;8.90;100.00
71966;BME280;59836;52.132;5.442;2023-12-22T13:00:31;100220.34;;;8.92;100.00
71966;BME280;59836;52.132;5.442;2023-12-22T13:03:05;100211.41;;;8.91;100.00